Time;durP1;ratioP1;P1;durP2;ratioP2;P2;SDS_P1;SDS_P2;PMS_P1;PMS_P2;Temp;Humidity;BMP_temperature;BMP_pressure;BME280_temperature;BME280_humidity;BME280_pressure;Samples;Min_cycle;Max_cycle;Signal;HPM_P1;HPM_P2
2022/05/25 00:01:55;;;;;;;3.37;2.85;;;;;;;15.61;39.12;99658.89;1717553;82;21209;-74
2022/05/25 00:04:21;;;;;;;6.35;3.22;;;;;;;15.61;39.10;99658.08;1714839;83;21071;-74
2022/05/25 00:06:48;;;;;;;6.12;3.35;;;;;;;15.60;39.53;99657.27;1709784;84;20981;-73
2022/05/25 00:09:15;;;;;;;3.33;2.45;;;;;;;15.57;40.16;99659.74;1721133;82;20991;-74
2022/05/25 00:11:41;;;;;;;3.47;3.12;;;;;;;15.44;40.57;99672.56;1738284;82;20998;-74
2022/05/25 00:14:08;;;;;;;8.20;2.80;;;;;;;15.18;41.05;99667.84;1716525;83;21124;-74
2022/05/25 00:16:36;;;;;;;2.95;2.75;;;;;;;15.00;41.67;99676.62;1705647;83;20979;-73
2022/05/25 00:21:48;;;;;;;3.85;3.50;;;;;;;14.88;41.25;99674.77;1745129;82;21060;-72
2022/05/25 00:24:14;;;;;;;9.25;4.60;;;;;;;14.92;41.23;99675.83;1737342;82;21007;-73
2022/05/25 00:26:41;;;;;;;4.60;3.95;;;;;;;14.96;41.13;99676.38;1701491;84;22134;-73
2022/05/25 00:29:07;;;;;;;7.50;4.15;;;;;;;15.00;41.11;99667.95;1708513;83;21539;-74
2022/05/25 00:31:35;;;;;;;7.60;4.08;;;;;;;15.05;41.18;99680.12;1717540;83;21128;-73
2022/05/25 00:34:04;;;;;;;4.85;4.35;;;;;;;15.09;41.00;99675.75;1692531;83;21058;-73
2022/05/25 00:36:31;;;;;;;4.95;4.40;;;;;;;15.08;41.50;99677.38;1718121;83;20990;-74
2022/05/25 00:38:58;;;;;;;5.50;4.60;;;;;;;15.05;41.40;99677.41;1718311;83;21963;-73
2022/05/25 00:41:26;;;;;;;5.55;4.50;;;;;;;15.05;41.26;99681.47;1720731;82;21076;-74
2022/05/25 00:43:53;;;;;;;5.05;4.55;;;;;;;15.08;41.05;99676.02;1718298;81;21061;-73
2022/05/25 00:46:21;;;;;;;8.23;4.42;;;;;;;15.11;41.01;99681.69;1710324;83;20949;-76
2022/05/25 00:48:56;;;;;;;6.22;4.37;;;;;;;15.16;40.86;99676.23;1704128;84;21009;-75
2022/05/25 00:51:37;;;;;;;4.78;4.37;;;;;;;15.22;40.84;99681.09;1706650;82;21120;-78
2022/05/25 00:54:14;;;;;;;7.15;4.87;;;;;;;15.23;41.32;99683.53;1748212;82;22132;-86
2022/05/25 00:56:43;;;;;;;5.62;4.80;;;;;;;15.13;41.77;99677.35;1748195;81;21066;-82
2022/05/25 00:59:14;;;;;;;7.42;6.55;;;;;;;15.03;42.09;99681.47;1718894;82;21093;-83
2022/05/25 01:01:41;;;;;;;5.55;4.40;;;;;;;14.96;41.92;99680.98;1716120;82;21029;-82
2022/05/25 01:04:09;;;;;;;6.12;4.92;;;;;;;14.91;42.01;99681.82;1699382;83;21308;-79
2022/05/25 01:07:00;;;;;;;5.62;4.37;;;;;;;14.90;41.83;99684.25;1689635;84;21005;-84
2022/05/25 01:09:56;;;;;;;8.25;5.67;;;;;;;14.90;42.07;99683.44;1676634;83;21044;-82
2022/05/25 01:12:51;;;;;;;6.17;4.53;;;;;;;14.92;41.82;99685.30;1698485;83;21010;-82
2022/05/25 01:15:36;;;;;;;8.30;5.00;;;;;;;14.94;41.58;99679.89;1687016;83;21072;-82
2022/05/25 01:18:17;;;;;;;13.60;5.85;;;;;;;15.00;41.54;99684.20;1686073;83;21502;-80
2022/05/25 01:20:57;;;;;;;5.50;4.25;;;;;;;15.06;41.55;99685.78;1689724;83;21038;-86
2022/05/25 01:23:58;;;;;;;10.00;5.85;;;;;;;15.08;41.44;99687.67;1689586;82;21029;-83
2022/05/25 01:27:10;;;;;;;6.12;5.05;;;;;;;15.09;41.48;99690.66;1690355;83;21109;-87
2022/05/25 01:30:00;;;;;;;6.08;5.15;;;;;;;15.10;41.56;99690.11;1689758;82;21109;-87
2022/05/25 01:33:05;;;;;;;6.28;5.25;;;;;;;15.11;41.64;99699.84;1711804;82;21587;-86
2022/05/25 01:35:56;;;;;;;8.48;5.87;;;;;;;15.11;41.63;99702.55;1696831;83;21041;-80
2022/05/25 01:38:49;;;;;;;7.75;5.03;;;;;;;15.12;41.51;99703.63;1686420;83;20934;-87
2022/05/25 01:41:58;;;;;;;6.28;5.28;;;;;;;15.15;41.49;99707.70;1692974;83;21091;-79
2022/05/25 01:44:42;;;;;;;10.38;4.47;;;;;;;15.17;41.10;99710.92;1683234;84;21553;-83
2022/05/25 01:47:11;;;;;;;;;;;;;;;15.19;41.13;99712.28;1684640;85;21178;-82
2022/05/25 01:50:04;;;;;;;6.85;4.87;;;;;;;15.22;41.30;99713.60;1662200;85;20096;-81
2022/05/25 01:52:39;;;;;;;7.83;5.55;;;;;;;15.22;41.43;99713.60;1701223;83;21078;-82
2022/05/25 01:55:14;;;;;;;11.38;5.87;;;;;;;15.23;41.42;99719.30;1709676;83;21083;-83
2022/05/25 01:57:44;;;;;;;9.18;4.67;;;;;;;15.22;41.56;99710.89;1705852;83;21057;-80
2022/05/25 02:00:27;;;;;;;5.90;5.30;;;;;;;15.20;41.57;99708.45;1689610;83;21908;-81
2022/05/25 02:05:50;;;;;;;9.98;5.75;;;;;;;15.20;41.65;99711.73;1711897;83;20919;-82
2022/05/25 02:08:25;;;;;;;5.72;5.22;;;;;;;15.19;41.69;99712.28;1711888;83;20975;-81
2022/05/25 02:11:18;;;;;;;5.87;4.78;;;;;;;15.18;41.66;99713.36;1678464;83;21490;-86
2022/05/25 02:14:14;;;;;;;9.10;5.03;;;;;;;15.20;41.57;99714.45;1733225;82;21080;-83
2022/05/25 02:16:52;;;;;;;7.50;5.53;;;;;;;15.20;41.52;99715.80;1725364;82;21114;-79
2022/05/25 02:19:37;;;;;;;5.85;4.85;;;;;;;15.20;41.42;99712.52;1741735;82;21514;-78
2022/05/25 02:22:19;;;;;;;8.05;4.78;;;;;;;15.21;41.37;99711.97;1738538;82;20941;-76
2022/05/25 02:24:51;;;;;;;8.60;5.10;;;;;;;15.22;41.27;99720.38;1733580;82;21123;-78
2022/05/25 02:27:39;;;;;;;6.25;4.10;;;;;;;15.23;41.29;99724.17;1703930;82;21799;-77
2022/05/25 02:30:19;;;;;;;7.70;4.80;;;;;;;15.23;41.27;99720.11;1709974;84;20977;-77
2022/05/25 02:33:10;;;;;;;7.42;5.53;;;;;;;15.24;41.19;99720.92;1683174;84;20968;-76
2022/05/25 02:35:37;;;;;;;7.85;5.85;;;;;;;15.25;41.44;99723.91;1683094;84;20987;-77
2022/05/25 02:38:05;;;;;;;4.37;3.98;;;;;;;15.24;41.39;99721.73;1658883;85;21043;-78
2022/05/25 02:40:34;;;;;;;5.75;5.10;;;;;;;15.24;41.31;99721.73;1686037;83;21159;-78
2022/05/25 02:43:00;;;;;;;8.68;4.85;;;;;;;15.25;41.22;99727.97;1707058;84;21507;-77
2022/05/25 02:45:27;;;;;;;9.53;5.03;;;;;;;15.25;41.39;99730.67;1706820;84;21020;-77
2022/05/25 02:47:54;;;;;;;8.33;4.95;;;;;;;15.23;41.35;99733.66;1709956;83;20945;-77
2022/05/25 02:50:21;;;;;;;7.17;4.97;;;;;;;15.23;41.31;99730.13;1706289;83;21492;-79
2022/05/25 02:52:49;;;;;;;5.03;4.50;;;;;;;15.25;41.12;99734.17;1710630;82;21302;-80
2022/05/25 02:55:16;;;;;;;6.42;5.00;;;;;;;15.26;41.19;99734.44;1704224;83;21606;-79
2022/05/25 02:57:43;;;;;;;5.62;4.60;;;;;;;15.28;41.07;99744.47;1705873;83;20963;-80
2022/05/25 03:00:12;;;;;;;7.45;4.25;;;;;;;15.31;40.99;99744.44;1711506;83;21079;-79
2022/05/25 03:02:38;;;;;;;7.92;4.60;;;;;;;15.34;41.05;99739.84;1738703;82;21060;-79
2022/05/25 03:05:10;;;;;;;5.75;4.67;;;;;;;15.37;41.07;99739.81;1737526;82;21461;-80
2022/05/25 03:07:37;;;;;;;6.55;5.85;;;;;;;15.39;41.18;99740.34;1725877;83;21009;-91
2022/05/25 03:10:07;;;;;;;9.38;5.55;;;;;;;15.38;41.40;99740.89;1682511;84;20925;-89
2022/05/25 03:12:34;;;;;;;7.90;4.25;;;;;;;15.37;41.45;99734.39;1678629;84;21073;-88
2022/05/25 03:15:02;;;;;;;6.25;5.17;;;;;;;15.37;41.74;99737.09;1698436;84;20962;-86
2022/05/25 03:17:32;;;;;;;7.33;5.53;;;;;;;15.33;41.75;99739.56;1677977;84;22566;-87
2022/05/25 03:19:59;;;;;;;8.25;5.90;;;;;;;15.30;42.28;99740.67;1668268;85;21013;-85
2022/05/25 03:22:26;;;;;;;11.85;6.45;;;;;;;15.26;42.42;99751.24;1695821;84;21006;-88
2022/05/25 03:24:53;;;;;;;9.18;6.62;;;;;;;15.21;42.82;99750.72;1686734;85;21056;-86
2022/05/25 03:27:20;;;;;;;9.80;6.17;;;;;;;15.16;43.36;99752.64;1687505;85;20955;-78
2022/05/25 03:29:46;;;;;;;13.60;7.05;;;;;;;15.09;43.55;99753.50;1686832;85;21915;-80
2022/05/25 03:32:12;;;;;;;13.65;6.67;;;;;;;15.02;43.95;99750.27;1718484;83;21063;-79
2022/05/25 03:34:39;;;;;;;12.25;7.75;;;;;;;14.96;44.18;99756.81;1728763;82;21008;-83
2022/05/25 03:37:06;;;;;;;10.00;6.97;;;;;;;14.91;44.45;99757.64;1728483;83;20990;-83
2022/05/25 03:39:33;;;;;;;7.72;6.30;;;;;;;14.88;44.75;99758.72;1702634;83;21067;-83
2022/05/25 03:42:04;;;;;;;7.15;6.05;;;;;;;14.86;45.16;99752.78;1689652;84;21553;-83
2022/05/25 03:44:30;;;;;;;8.33;6.42;;;;;;;14.83;45.35;99762.25;1683066;85;21694;-83
2022/05/25 03:46:58;;;;;;;9.78;7.28;;;;;;;14.79;45.20;99755.23;1682954;84;22152;-83
2022/05/25 03:49:24;;;;;;;8.08;6.72;;;;;;;14.79;45.28;99759.30;1698430;83;21017;-83
2022/05/25 03:51:51;;;;;;;8.73;5.90;;;;;;;14.81;45.22;99760.38;1727257;83;21502;-84
2022/05/25 03:54:18;;;;;;;9.00;6.30;;;;;;;14.82;45.12;99764.15;1713985;83;21137;-84
2022/05/25 03:56:45;;;;;;;9.68;6.05;;;;;;;14.84;45.18;99766.05;1691381;84;21041;-83
2022/05/25 03:59:13;;;;;;;7.65;6.15;;;;;;;14.86;45.26;99758.20;1687230;84;21040;-85
2022/05/25 04:01:40;;;;;;;7.50;6.15;;;;;;;14.87;45.31;99757.91;1706726;82;21021;-86
2022/05/25 04:04:09;;;;;;;9.38;6.42;;;;;;;14.89;45.32;99756.28;1713699;82;21096;-87
2022/05/25 04:06:38;;;;;;;7.85;6.90;;;;;;;14.90;45.22;99764.14;1689801;84;21359;-84
2022/05/25 04:09:05;;;;;;;10.53;5.45;;;;;;;14.93;45.17;99761.41;1670981;85;21040;-82
2022/05/25 04:11:34;;;;;;;8.73;5.60;;;;;;;14.96;45.05;99759.52;1688122;84;21024;-85
2022/05/25 04:14:03;;;;;;;6.05;4.85;;;;;;;15.02;45.10;99767.88;1691264;84;21534;-84
2022/05/25 04:16:32;;;;;;;6.30;5.70;;;;;;;15.05;45.02;99768.16;1667483;85;21078;-80
2022/05/25 04:18:59;;;;;;;11.95;6.70;;;;;;;15.11;45.37;99769.73;1652560;85;21231;-80
2022/05/25 04:21:26;;;;;;;10.30;6.05;;;;;;;15.14;45.92;99774.61;1671123;85;21092;-77
2022/05/25 04:23:53;;;;;;;18.40;7.05;;;;;;;15.16;46.69;99784.61;1657678;85;151501;-79
2022/05/25 04:26:21;;;;;;;7.10;6.12;;;;;;;15.19;46.44;99792.20;1657203;86;21079;-82
2022/05/25 04:28:49;;;;;;;8.00;6.50;;;;;;;15.22;46.06;99787.57;1633103;85;21620;-80
2022/05/25 04:31:16;;;;;;;6.62;5.58;;;;;;;15.26;46.18;99790.53;1652831;85;21092;-81
2022/05/25 04:33:42;;;;;;;7.53;5.47;;;;;;;15.32;46.29;99800.27;1656185;86;21027;-80
2022/05/25 04:36:09;;;;;;;6.95;5.58;;;;;;;15.37;46.23;99795.36;1656151;86;21024;-81
2022/05/25 04:38:36;;;;;;;7.12;5.67;;;;;;;15.42;46.13;99806.18;1655144;85;21541;-82
2022/05/25 04:41:02;;;;;;;5.78;5.17;;;;;;;15.47;45.73;99798.84;1681906;84;21545;-76
2022/05/25 04:43:29;;;;;;;6.67;4.83;;;;;;;15.54;45.63;99799.94;1633205;87;21258;-76
2022/05/25 04:45:55;;;;;;;5.58;4.47;;;;;;;15.60;45.24;99798.25;1634700;86;20990;-76
2022/05/25 04:48:25;;;;;;;7.25;3.95;;;;;;;15.66;45.34;99801.20;1652119;86;21039;-75
2022/05/25 04:50:53;;;;;;;5.17;4.42;;;;;;;15.74;44.62;99801.69;1687956;85;21083;-75
2022/05/25 04:53:21;;;;;;;7.15;4.30;;;;;;;15.81;44.94;99797.59;1706893;83;21032;-75
2022/05/25 04:58:43;;;;;;;5.55;3.95;;;;;;;15.96;44.59;99807.52;1695133;83;21052;-75
2022/05/25 05:01:11;;;;;;;5.33;4.12;;;;;;;16.04;44.19;99798.77;1679187;84;21525;-75
2022/05/25 05:03:38;;;;;;;7.05;3.98;;;;;;;16.12;43.80;99799.52;1714709;83;21000;-75
2022/05/25 05:06:06;;;;;;;5.95;3.60;;;;;;;16.20;43.75;99801.64;1719981;82;20992;-78
2022/05/25 05:08:34;;;;;;;6.15;3.95;;;;;;;16.28;43.58;99803.73;1678919;85;21240;-79
2022/05/25 05:11:14;;;;;;;5.33;3.98;;;;;;;16.35;43.22;99802.87;1690735;83;20925;-78
2022/05/25 05:13:40;;;;;;;5.55;4.30;;;;;;;16.44;42.92;99808.50;1720093;83;21039;-79
2022/05/25 05:16:10;;;;;;;5.37;4.05;;;;;;;16.53;42.62;99810.30;1719523;82;21103;-82
2022/05/25 05:18:37;;;;;;;4.87;4.03;;;;;;;16.62;42.62;99809.70;1690002;84;21666;-82
2022/05/25 05:21:07;;;;;;;5.92;4.33;;;;;;;16.69;42.06;99816.41;1690767;83;21405;-79
2022/05/25 05:23:34;;;;;;;6.12;3.80;;;;;;;16.79;41.58;99816.86;1706041;83;21415;-77
2022/05/25 05:26:00;;;;;;;5.97;4.05;;;;;;;16.85;41.75;99808.38;1720978;83;20937;-77
2022/05/25 05:28:32;;;;;;;7.53;3.92;;;;;;;16.92;41.13;99815.65;1715427;83;21090;-85
2022/05/25 05:31:00;;;;;;;5.60;4.00;;;;;;;16.99;41.33;99821.53;1690910;83;21056;-82
2022/05/25 05:33:28;;;;;;;6.03;4.05;;;;;;;17.08;41.16;99815.45;1707480;83;21268;-80
2022/05/25 05:36:08;;;;;;;5.15;3.90;;;;;;;17.16;40.80;99814.84;1753032;81;21413;-81
2022/05/25 05:38:41;;;;;;;6.58;4.33;;;;;;;17.22;41.00;99817.19;1710507;82;21047;-76
2022/05/25 05:41:08;;;;;;;6.53;4.00;;;;;;;17.29;41.16;99819.02;1688424;84;21566;-80
2022/05/25 05:43:36;;;;;;;5.90;5.03;;;;;;;17.36;40.82;99817.31;1659069;86;21039;-79
2022/05/25 05:46:03;;;;;;;8.05;4.53;;;;;;;17.43;40.99;99817.75;1691905;84;21168;-79
2022/05/25 05:48:29;;;;;;;4.80;4.17;;;;;;;17.51;40.97;99814.92;1690084;83;21015;-77
2022/05/25 05:50:56;;;;;;;4.83;3.80;;;;;;;17.59;41.04;99817.04;1689525;84;21509;-78
2022/05/25 05:53:24;;;;;;;4.83;3.67;;;;;;;17.66;40.77;99814.75;1712252;81;21016;-77
2022/05/25 05:55:51;;;;;;;5.22;3.98;;;;;;;17.74;40.62;99819.00;1753300;81;21008;-77
2022/05/25 05:58:18;;;;;;;6.37;3.70;;;;;;;17.82;40.25;99818.87;1720281;81;22232;-77
2022/05/25 06:00:45;;;;;;;3.37;3.08;;;;;;;17.90;40.00;99822.84;1718650;82;21082;-78
2022/05/25 06:03:14;;;;;;;4.12;3.33;;;;;;;17.96;40.27;99826.56;1742634;81;21563;-79
2022/05/25 06:05:45;;;;;;;4.30;3.45;;;;;;;18.04;40.02;99823.16;1749903;81;21083;-80
2022/05/25 06:08:17;;;;;;;3.58;3.27;;;;;;;18.11;40.15;99828.25;1718772;82;21044;-84
2022/05/25 06:10:45;;;;;;;5.03;3.13;;;;;;;18.17;39.83;99827.88;1673524;84;21237;-81
2022/05/25 06:13:11;;;;;;;3.90;2.80;;;;;;;18.24;39.40;99826.94;1710971;83;21194;-80
2022/05/25 06:21:09;;;;;;;3.47;3.08;;;;;;;18.45;39.08;99834.78;1691520;84;21028;-79
2022/05/25 06:23:36;;;;;;;4.47;3.17;;;;;;;18.52;38.75;99831.09;1707475;83;21131;-78
2022/05/25 06:26:03;;;;;;;6.70;4.45;;;;;;;18.58;38.74;99840.30;1714814;83;21020;-82
2022/05/25 06:28:29;;;;;;;3.02;2.80;;;;;;;18.66;38.59;99837.42;1722159;83;21462;-80
2022/05/25 06:30:56;;;;;;;6.25;3.70;;;;;;;18.71;38.25;99834.05;1707933;82;21021;-80
2022/05/25 06:33:22;;;;;;;8.10;2.77;;;;;;;18.78;37.62;99839.67;1691113;84;20983;-82
2022/05/25 06:35:50;;;;;;;4.40;2.50;;;;;;;18.83;37.15;99839.03;1688031;84;21123;-80
2022/05/25 06:38:17;;;;;;;5.58;3.70;;;;;;;18.89;37.40;99830.22;1689862;83;20967;-82
2022/05/25 06:40:43;;;;;;;9.60;4.37;;;;;;;18.96;37.50;99835.52;1715510;83;21046;-82
2022/05/25 06:43:11;;;;;;;2.62;2.42;;;;;;;19.03;36.35;99832.40;1701431;83;21028;-79
2022/05/25 06:45:38;;;;;;;3.20;2.60;;;;;;;19.08;36.04;99828.22;1665180;85;21001;-88
2022/05/25 06:48:07;;;;;;;6.50;2.65;;;;;;;19.14;36.13;99826.42;1665170;86;21157;-84
2022/05/25 06:50:34;;;;;;;3.20;2.90;;;;;;;19.22;36.48;99836.39;1666075;84;21152;-86
2022/05/25 06:53:01;;;;;;;7.35;4.55;;;;;;;19.29;36.66;99836.78;1675395;85;21536;-86
2022/05/25 06:55:27;;;;;;;4.33;3.25;;;;;;;19.35;36.69;99826.84;1687813;85;21039;-81
2022/05/25 06:57:54;;;;;;;2.58;2.37;;;;;;;19.41;36.67;99833.81;1688650;84;21020;-81
2022/05/25 07:00:21;;;;;;;2.47;2.27;;;;;;;19.47;36.33;99838.64;1693171;84;21271;-83
2022/05/25 07:02:47;;;;;;;2.45;2.25;;;;;;;19.54;35.25;99843.92;1691748;84;21055;-81
2022/05/25 07:05:14;;;;;;;2.62;2.37;;;;;;;19.60;34.63;99836.44;1691531;84;21024;-83
2022/05/25 07:07:41;;;;;;;5.60;2.83;;;;;;;19.62;34.92;99830.10;1710365;83;20945;-83
2022/05/25 07:10:09;;;;;;;10.58;2.80;;;;;;;19.67;34.91;99835.45;1716216;83;21063;-82
2022/05/25 07:12:37;;;;;;;2.62;2.42;;;;;;;19.72;35.05;99838.07;1724552;82;21131;-84
2022/05/25 07:15:06;;;;;;;2.60;2.40;;;;;;;19.79;34.52;99843.94;1721861;82;21541;-84
2022/05/25 07:17:34;;;;;;;2.85;2.65;;;;;;;19.86;34.58;99838.84;1715902;83;21064;-84
2022/05/25 07:20:03;;;;;;;4.42;2.50;;;;;;;19.97;34.69;99836.70;1715778;83;21137;-84
2022/05/25 07:22:30;;;;;;;3.10;2.80;;;;;;;20.06;34.52;99835.40;1725026;82;20999;-86
2022/05/25 07:24:56;;;;;;;4.03;2.50;;;;;;;20.16;33.53;99838.70;1717727;83;21118;-86
2022/05/25 07:27:23;;;;;;;2.87;2.30;;;;;;;20.23;33.19;99839.65;1717240;83;21007;-79
2022/05/25 07:29:49;;;;;;;4.37;2.35;;;;;;;20.30;33.06;99836.75;1717502;83;21579;-82
2022/05/25 07:32:16;;;;;;;2.20;1.75;;;;;;;20.39;32.43;99835.44;1711882;82;20958;-82
2022/05/25 07:34:50;;;;;;;3.12;2.83;;;;;;;20.46;31.74;99838.56;1651901;84;21026;-84
2022/05/25 07:37:21;;;;;;;4.20;3.40;;;;;;;20.54;31.50;99834.25;1689308;85;21069;-82
2022/05/25 07:39:58;;;;;;;3.85;2.65;;;;;;;20.61;31.12;99829.98;1688895;85;21424;-82
2022/05/25 07:42:25;;;;;;;2.77;2.47;;;;;;;20.67;30.99;99826.55;1677324;85;20994;-80
2022/05/25 07:44:55;;;;;;;3.27;1.65;;;;;;;20.73;30.38;99832.92;1658563;85;21514;-82
2022/05/25 07:47:22;;;;;;;1.72;1.62;;;;;;;20.71;30.27;99836.55;1659959;85;21061;-79
2022/05/25 07:49:49;;;;;;;1.62;1.52;;;;;;;20.72;30.01;99825.06;1660826;86;21862;-76
2022/05/25 07:52:15;;;;;;;4.33;1.30;;;;;;;20.76;30.03;99826.85;1660742;86;21608;-81
2022/05/25 07:54:43;;;;;;;5.22;1.70;;;;;;;20.84;30.31;99835.65;1659771;85;21000;-78
2022/05/25 07:57:10;;;;;;;5.22;2.67;;;;;;;20.95;30.16;99835.38;1681189;85;21008;-84
2022/05/25 07:59:37;;;;;;;2.75;1.70;;;;;;;21.13;29.84;99832.95;1660998;86;21119;-85
2022/05/25 08:07:40;;;;;;;3.47;1.82;;;;;;;21.13;30.21;99828.85;1656572;86;21071;-85
2022/05/25 08:10:11;;;;;;;3.72;1.80;;;;;;;21.23;30.05;99829.97;1661237;86;22120;-85
2022/05/25 08:12:38;;;;;;;2.47;1.92;;;;;;;21.35;29.91;99840.29;1660213;86;21017;-78
2022/05/25 08:15:07;;;;;;;2.60;2.33;;;;;;;21.35;29.91;99840.29;1660651;85;21119;-75
2022/05/25 08:17:34;;;;;;;2.65;2.45;;;;;;;21.41;29.74;99830.26;1641057;86;21546;-85
2022/05/25 08:20:01;;;;;;;4.12;2.20;;;;;;;21.41;29.74;99830.26;1655536;85;21543;-90
2022/05/25 08:22:29;;;;;;;10.78;2.27;;;;;;;21.43;29.83;99835.42;1660885;85;20914;-86
2022/05/25 08:24:57;;;;;;;4.65;2.08;;;;;;;21.46;29.60;99824.64;1679907;84;21028;-92
2022/05/25 08:27:24;;;;;;;6.28;2.85;;;;;;;21.52;29.73;99833.52;1662367;85;21152;-75
2022/05/25 08:29:51;;;;;;;2.05;1.82;;;;;;;21.51;29.07;99837.36;1651900;86;21020;-86
2022/05/25 08:32:18;;;;;;;3.40;2.02;;;;;;;21.48;29.17;99844.86;1655485;86;21011;-81
2022/05/25 08:34:44;;;;;;;2.33;1.92;;;;;;;21.54;29.06;99844.92;1669169;85;21029;-85
2022/05/25 08:37:11;;;;;;;3.35;2.65;;;;;;;21.58;29.10;99841.83;1633332;86;21205;-84
2022/05/25 08:39:39;;;;;;;3.08;2.50;;;;;;;21.62;28.97;99846.34;1655703;86;22077;-87
2022/05/25 08:42:10;;;;;;;2.30;2.10;;;;;;;21.64;28.98;99846.00;1655653;86;20980;-84
2022/05/25 08:44:36;;;;;;;3.10;2.08;;;;;;;21.69;28.93;99843.11;1655470;85;21040;-85
2022/05/25 08:47:05;;;;;;;2.40;2.20;;;;;;;21.65;28.90;99833.94;1680666;85;21571;-84
2022/05/25 08:49:32;;;;;;;5.00;2.40;;;;;;;21.62;29.04;99834.02;1660938;84;21051;-84
2022/05/25 08:52:01;;;;;;;2.45;2.25;;;;;;;21.71;29.25;99836.20;1660405;86;21778;-85
2022/05/25 08:54:28;;;;;;;4.80;2.40;;;;;;;21.84;29.09;99831.70;1661076;85;21039;-88
2022/05/25 08:57:14;;;;;;;3.15;2.77;;;;;;;21.93;28.51;99833.91;1662929;85;20988;-91
2022/05/25 09:00:02;;;;;;;2.55;2.20;;;;;;;21.90;28.32;99838.64;1658038;86;21608;-87
2022/05/25 09:02:47;;;;;;;2.25;2.05;;;;;;;21.90;28.51;99829.62;1660892;85;21032;-82
2022/05/25 09:05:34;;;;;;;3.22;2.35;;;;;;;21.98;28.18;99845.27;1663716;85;21514;-93
2022/05/25 09:08:38;;;;;;;2.55;2.20;;;;;;;22.06;28.09;99837.05;1675144;85;20949;-88
2022/05/25 09:11:09;;;;;;;2.75;2.15;;;;;;;22.10;27.96;99825.72;1689165;85;21083;-90
2022/05/25 09:13:41;;;;;;;2.10;1.90;;;;;;;22.08;28.02;99827.15;1689063;85;21004;-89
2022/05/25 09:16:16;;;;;;;4.25;2.62;;;;;;;22.15;27.82;99821.45;1666795;84;21120;-86
2022/05/25 09:18:57;;;;;;;2.42;2.22;;;;;;;22.18;27.75;99810.39;1674665;85;21925;-83
2022/05/25 09:21:29;;;;;;;2.80;2.33;;;;;;;22.28;27.83;99831.17;1678587;85;21016;-82
2022/05/25 09:23:56;;;;;;;10.65;2.33;;;;;;;22.39;27.91;99833.83;1655146;85;20969;-81
2022/05/25 09:26:22;;;;;;;2.27;2.02;;;;;;;22.51;27.37;99823.80;1657815;86;21007;-79
2022/05/25 09:28:50;;;;;;;3.60;2.92;;;;;;;22.61;27.18;99824.02;1657612;85;21107;-81
2022/05/25 09:31:21;;;;;;;6.80;2.20;;;;;;;22.69;27.02;99819.63;1660845;86;21340;-80
2022/05/25 09:33:58;;;;;;;2.50;2.30;;;;;;;22.74;27.14;99823.61;1660181;86;21615;-80
2022/05/25 09:36:32;;;;;;;4.03;2.22;;;;;;;22.77;26.93;99817.48;1660437;86;21080;-81
2022/05/25 09:39:26;;;;;;;2.95;2.67;;;;;;;22.83;26.72;99807.36;1670683;85;21046;-80
2022/05/25 09:41:58;;;;;;;2.37;2.17;;;;;;;22.76;26.68;99811.19;1660479;85;21120;-77
2022/05/25 09:44:26;;;;;;;3.87;2.72;;;;;;;22.73;26.96;99806.38;1660043;84;21159;-77
2022/05/25 09:47:06;;;;;;;2.77;2.58;;;;;;;22.78;26.95;99801.27;1658698;85;20960;-81
2022/05/25 09:49:38;;;;;;;3.00;2.60;;;;;;;22.78;26.65;99823.22;1637283;86;20952;-84
2022/05/25 09:52:10;;;;;;;4.42;2.40;;;;;;;22.75;26.92;99809.58;1661315;85;21299;-80
2022/05/25 09:54:46;;;;;;;6.15;2.70;;;;;;;22.75;26.82;99798.61;1661227;86;21065;-80
2022/05/25 09:57:36;;;;;;;5.67;2.27;;;;;;;22.77;27.08;99790.88;1658123;85;21532;-79
2022/05/25 10:00:25;;;;;;;3.45;2.17;;;;;;;22.95;27.13;99794.34;1687918;85;21036;-82
2022/05/25 10:03:01;;;;;;;2.60;2.40;;;;;;;23.13;26.66;99806.84;1650049;85;21027;-77
2022/05/25 10:05:32;;;;;;;3.92;2.80;;;;;;;23.31;26.25;99802.09;1686405;84;21000;-77
2022/05/25 10:08:18;;;;;;;2.37;2.17;;;;;;;23.38;26.26;99794.11;1666006;85;21022;-77
2022/05/25 10:11:02;;;;;;;3.05;2.35;;;;;;;23.46;26.02;99799.58;1672716;85;21098;-83
2022/05/25 10:13:40;;;;;;;3.85;2.47;;;;;;;23.48;26.03;99791.02;1672890;85;20931;-84
2022/05/25 10:16:29;;;;;;;3.77;2.42;;;;;;;23.57;25.88;99795.08;1652590;85;20977;-83
2022/05/25 10:18:56;;;;;;;7.97;2.52;;;;;;;23.61;25.67;99795.45;1668594;85;21015;-86
2022/05/25 10:21:29;;;;;;;5.67;2.25;;;;;;;23.66;25.49;99806.80;1649747;85;21017;-86
2022/05/25 10:23:57;;;;;;;8.50;2.60;;;;;;;23.72;25.26;99793.92;1673349;85;21150;-83
2022/05/25 10:26:35;;;;;;;1.87;1.72;;;;;;;23.80;25.25;99800.48;1668650;85;20961;-81
2022/05/25 10:29:12;;;;;;;4.60;3.52;;;;;;;23.84;25.10;99805.53;1668156;85;20978;-81
2022/05/25 10:37:26;;;;;;;4.12;3.00;;;;;;;23.95;25.12;99786.14;1658962;86;22126;-78
2022/05/25 10:39:58;;;;;;;3.22;2.70;;;;;;;23.95;25.03;99784.77;1660245;85;21060;-80
2022/05/25 10:42:47;;;;;;;7.87;3.25;;;;;;;23.76;25.20;99770.70;1661215;86;21107;-77
2022/05/25 10:45:21;;;;;;;6.83;2.20;;;;;;;23.74;25.48;99770.25;1658226;86;21044;-79
2022/05/25 10:47:57;;;;;;;2.77;2.58;;;;;;;23.85;25.45;99777.73;1666536;85;21127;-76
2022/05/25 10:50:43;;;;;;;3.12;2.22;;;;;;;24.00;25.33;99783.19;1657889;85;21035;-72
2022/05/25 10:53:43;;;;;;;2.37;2.17;;;;;;;24.09;25.09;99767.42;1656210;86;22204;-76
2022/05/25 10:56:31;;;;;;;3.12;2.17;;;;;;;24.16;25.30;99772.38;1656627;85;21119;-80
2022/05/25 10:59:16;;;;;;;9.60;2.75;;;;;;;24.22;25.19;99767.72;1657655;85;21125;-78
2022/05/25 11:02:13;;;;;;;3.92;2.70;;;;;;;24.30;25.08;99764.10;1672817;85;21017;-77
2022/05/25 11:05:11;;;;;;;1.77;1.67;;;;;;;24.32;25.20;99756.87;1660175;85;21587;-78
2022/05/25 11:07:41;;;;;;;4.53;2.60;;;;;;;24.32;24.99;99767.30;1664319;85;21049;-80
2022/05/25 11:10:37;;;;;;;5.47;2.52;;;;;;;24.37;24.94;99766.28;1672746;85;21521;-78
2022/05/25 11:13:27;;;;;;;3.25;2.47;;;;;;;24.41;24.95;99760.92;1658437;86;21009;-78
2022/05/25 11:16:37;;;;;;;2.83;2.27;;;;;;;24.23;25.03;99753.41;1656713;86;20982;-81
2022/05/25 11:19:27;;;;;;;5.42;2.33;;;;;;;24.13;25.30;99756.55;1648055;85;21173;-74
2022/05/25 11:22:29;;;;;;;4.30;2.35;;;;;;;24.18;25.40;99747.55;1656166;86;21034;-73
2022/05/25 11:25:39;;;;;;;4.50;2.30;;;;;;;24.34;24.93;99740.84;1633012;87;21019;-72
2022/05/25 11:28:29;;;;;;;3.98;2.17;;;;;;;24.45;24.60;99743.97;1650583;85;21095;-73
2022/05/25 11:31:21;;;;;;;6.15;3.25;;;;;;;24.52;24.14;99741.45;1645942;85;21060;-73
2022/05/25 11:34:05;;;;;;;3.15;2.10;;;;;;;24.56;24.09;99743.17;1669202;84;21241;-71
2022/05/25 11:37:10;;;;;;;3.60;2.20;;;;;;;24.58;23.88;99750.53;1660144;86;21095;-74
2022/05/25 11:40:21;;;;;;;2.52;2.33;;;;;;;24.69;23.53;99739.32;1674630;85;21326;-75
2022/05/25 11:43:20;;;;;;;2.27;2.08;;;;;;;24.61;23.71;99743.52;1635967;86;21027;-75
2022/05/25 11:46:30;;;;;;;2.17;1.67;;;;;;;24.53;23.98;99735.62;1658386;86;21593;-73
2022/05/25 11:49:29;;;;;;;2.10;1.95;;;;;;;24.58;23.98;99738.72;1629595;86;21240;-75
2022/05/25 11:52:16;;;;;;;3.25;2.35;;;;;;;24.67;24.01;99744.91;1632951;87;21075;-74
2022/05/25 11:55:24;;;;;;;2.37;2.17;;;;;;;24.77;24.00;99744.47;1654098;86;21553;-85
2022/05/25 11:58:27;;;;;;;3.77;2.25;;;;;;;24.82;24.01;99740.12;1659537;85;20973;-78
2022/05/25 12:01:32;;;;;;;5.65;2.55;;;;;;;24.92;23.90;99741.08;1647793;85;21012;-81
2022/05/25 12:04:07;;;;;;;5.35;2.55;;;;;;;24.85;23.93;99730.36;1659720;86;21302;-79
2022/05/25 12:07:06;;;;;;;2.60;2.40;;;;;;;24.70;24.59;99726.34;1660022;86;21499;-74
2022/05/25 12:09:51;;;;;;;6.42;2.90;;;;;;;24.67;24.82;99726.47;1655635;85;21069;-80
2022/05/25 12:12:32;;;;;;;4.22;2.33;;;;;;;24.70;24.97;99720.84;1654110;85;21061;-76
2022/05/25 12:15:16;;;;;;;6.78;3.33;;;;;;;24.77;25.26;99722.46;1668684;85;21614;-76
2022/05/25 12:18:24;;;;;;;4.90;2.70;;;;;;;24.77;25.02;99716.95;1661688;86;20945;-77
2022/05/25 12:21:15;;;;;;;3.05;2.72;;;;;;;24.76;25.14;99712.59;1658366;86;21061;-76
2022/05/25 12:23:50;;;;;;;5.22;2.55;;;;;;;24.74;24.97;99719.84;1658283;86;21060;-75
2022/05/25 12:26:29;;;;;;;3.02;2.47;;;;;;;24.77;24.65;99711.45;1659877;86;21108;-82
2022/05/25 12:29:20;;;;;;;6.58;3.15;;;;;;;24.76;24.37;99701.59;1663905;85;21480;-76
2022/05/25 12:31:51;;;;;;;2.47;2.27;;;;;;;24.71;24.54;99696.31;1672543;85;21131;-74
2022/05/25 12:34:34;;;;;;;6.35;2.77;;;;;;;24.71;24.77;99692.19;1687930;85;21004;-74